This is the latest recevied weather packets stored in our database for station/object eb1ayw-13. If no packets are shown the sender has not sent any weather packets the latest 10 day(s).
| Time | Temp. | Humidity | Pressure | Rain* | Wind** | Luminosity | Snow |
|---|---|---|---|---|---|---|---|
| 1777990669 | 43.33° C | 12% | 1001.6 hPa | - | - | - | - |
| 1777990069 | 44.44° C | 12% | 1001.4 hPa | - | - | - | - |
| 1777989469 | 41.67° C | 12% | 1002.1 hPa | - | - | - | - |
| 1777988869 | 44.44° C | 11% | 1001.3 hPa | - | - | - | - |
| 1777988268 | 43.89° C | 12% | 1001.6 hPa | - | - | - | - |
| 1777987669 | 43.33° C | 12% | 1001.7 hPa | - | - | - | - |
| 1777987069 | 40° C | 13% | 1002.6 hPa | - | - | - | - |
| 1777986469 | 43.89° C | 11% | 1001.5 hPa | - | - | - | - |
| 1777985868 | 40.56° C | 12% | 1002.5 hPa | - | - | - | - |
| 1777985268 | 41.11° C | 11% | 1002.4 hPa | - | - | - | - |
| 1777984669 | 44.44° C | 11% | 1001.6 hPa | - | - | - | - |
| 1777984068 | 43.89° C | 11% | 1001.9 hPa | - | - | - | - |
| 1777983469 | 44.44° C | 10% | 1001.8 hPa | - | - | - | - |
| 1777982869 | 45° C | 10% | 1001.7 hPa | - | - | - | - |
| 1777982268 | 44.44° C | 11% | 1002.1 hPa | - | - | - | - |
| 1777981669 | 43.89° C | 11% | 1002.2 hPa | - | - | - | - |
| 1777981069 | 42.78° C | 12% | 1002.6 hPa | - | - | - | - |
| 1777980469 | 45° C | 11% | 1002.2 hPa | - | - | - | - |
| 1777979871 | 45° C | 10% | 1002.2 hPa | - | - | - | - |
| 1777979269 | 40° C | 13% | 1003.5 hPa | - | - | - | - |
| 1777978671 | 40.56° C | 13% | 1003.5 hPa | - | - | - | - |
| 1777978069 | 39.44° C | 13% | 1003.9 hPa | - | - | - | - |
| 1777977468 | 35.56° C | 16% | 1004.9 hPa | - | - | - | - |
| 1777976869 | 42.22° C | 12% | 1003.4 hPa | - | - | - | - |
| 1777976269 | 36.11° C | 15% | 1004.8 hPa | - | - | - | - |
* Rain since midnight (hover to see other rain measurements)
** Current wind speed in m/s (hover to see current wind gust speed)